La Fayette, Illinois
Current Conditions -  °F | °C
As of 1:55 PM on Sunday 25 Jan 2015 (Local Time) from KGBG Reporting Station
Light Snow Light Snow  
Wind Chill: 17°   Ceiling: 1100
Heat Index: 30°   Visibility: 3mi
Dew Point: 28°   Wind: 18mph
Humidity: 92%   Direction: 20°NNE
Pressure: 29.79"   Gusts: 28mph
Location:  41.11°N, 89.97°W
Report Text: KGBG 251955Z AUTO 02016G24KT 3SM -SN OVC011 M01/M02 A2979 RMK AO2 T10131024
Loading
Personal Weather Stations






























Interactive Weather Map New forecast layout! Learn more

10-Day Weather Forecast

Advertisements
Track Severe Weather on mobile